sensor_id;sensor_type;location;lat;lon;timestamp;P1;durP1;ratioP1;P2;durP2;ratioP2
49582;SDS011;36329;48.816;44.624;2023-12-22T00:02:38;9.1;;;5.5;;
49582;SDS011;36329;48.816;44.624;2023-12-22T00:05:41;10.8;;;5.8;;
49582;SDS011;36329;48.816;44.624;2023-12-22T00:08:43;9;;;5.2;;
49582;SDS011;36329;48.816;44.624;2023-12-22T00:11:46;8.8;;;5.2;;
49582;SDS011;36329;48.816;44.624;2023-12-22T00:14:48;9.2;;;5.4;;
49582;SDS011;36329;48.816;44.624;2023-12-22T00:17:50;9.9;;;5;;
49582;SDS011;36329;48.816;44.624;2023-12-22T00:20:52;10.1;;;5.3;;
49582;SDS011;36329;48.816;44.624;2023-12-22T00:23:55;10.4;;;5.2;;
49582;SDS011;36329;48.816;44.624;2023-12-22T00:26:57;11.2;;;5.4;;
49582;SDS011;36329;48.816;44.624;2023-12-22T00:29:59;8.3;;;4.7;;
49582;SDS011;36329;48.816;44.624;2023-12-22T00:33:01;8.8;;;5.1;;
49582;SDS011;36329;48.816;44.624;2023-12-22T00:36:04;9.3;;;5.3;;
49582;SDS011;36329;48.816;44.624;2023-12-22T00:39:06;10.8;;;5.5;;
49582;SDS011;36329;48.816;44.624;2023-12-22T00:42:09;9.4;;;4.4;;
49582;SDS011;36329;48.816;44.624;2023-12-22T00:45:11;9.4;;;4.7;;
49582;SDS011;36329;48.816;44.624;2023-12-22T00:48:13;9.3;;;5.1;;
49582;SDS011;36329;48.816;44.624;2023-12-22T00:51:16;9.2;;;5;;
49582;SDS011;36329;48.816;44.624;2023-12-22T00:54:19;8.9;;;5.3;;
49582;SDS011;36329;48.816;44.624;2023-12-22T00:57:21;10.3;;;5.2;;
49582;SDS011;36329;48.816;44.624;2023-12-22T01:00:23;7.7;;;4.6;;
49582;SDS011;36329;48.816;44.624;2023-12-22T01:03:25;8.2;;;5;;
49582;SDS011;36329;48.816;44.624;2023-12-22T01:06:28;10.1;;;5.1;;
49582;SDS011;36329;48.816;44.624;2023-12-22T01:09:31;9.9;;;5;;
49582;SDS011;36329;48.816;44.624;2023-12-22T01:12:33;10.8;;;5.7;;
49582;SDS011;36329;48.816;44.624;2023-12-22T01:15:35;11.2;;;5;;
49582;SDS011;36329;48.816;44.624;2023-12-22T01:18:37;9.9;;;5.2;;
49582;SDS011;36329;48.816;44.624;2023-12-22T01:21:40;9.9;;;5;;
49582;SDS011;36329;48.816;44.624;2023-12-22T01:24:42;8;;;4.9;;
49582;SDS011;36329;48.816;44.624;2023-12-22T01:27:44;10.6;;;5.5;;
49582;SDS011;36329;48.816;44.624;2023-12-22T01:30:46;8.9;;;5.4;;
49582;SDS011;36329;48.816;44.624;2023-12-22T01:33:48;9.8;;;5.8;;
49582;SDS011;36329;48.816;44.624;2023-12-22T01:36:50;9.8;;;5.6;;
49582;SDS011;36329;48.816;44.624;2023-12-22T01:39:53;9.4;;;5.7;;
49582;SDS011;36329;48.816;44.624;2023-12-22T01:42:55;11.3;;;5.6;;
49582;SDS011;36329;48.816;44.624;2023-12-22T01:45:58;8.6;;;5;;
49582;SDS011;36329;48.816;44.624;2023-12-22T01:49:01;8.2;;;5;;
49582;SDS011;36329;48.816;44.624;2023-12-22T01:52:04;9.5;;;4.9;;
49582;SDS011;36329;48.816;44.624;2023-12-22T01:55:07;8.1;;;4.8;;
49582;SDS011;36329;48.816;44.624;2023-12-22T01:58:14;9.2;;;5.2;;
49582;SDS011;36329;48.816;44.624;2023-12-22T02:01:16;10.5;;;5.2;;
49582;SDS011;36329;48.816;44.624;2023-12-22T02:04:19;9.8;;;5;;
49582;SDS011;36329;48.816;44.624;2023-12-22T02:07:22;7.3;;;4.7;;
49582;SDS011;36329;48.816;44.624;2023-12-22T02:10:25;9.6;;;5.1;;
49582;SDS011;36329;48.816;44.624;2023-12-22T02:13:27;7.6;;;4.7;;
49582;SDS011;36329;48.816;44.624;2023-12-22T02:16:32;8.9;;;4.8;;
49582;SDS011;36329;48.816;44.624;2023-12-22T02:19:41;9.3;;;5.3;;
49582;SDS011;36329;48.816;44.624;2023-12-22T02:22:44;7.9;;;4.8;;
49582;SDS011;36329;48.816;44.624;2023-12-22T02:25:46;8;;;4.9;;
49582;SDS011;36329;48.816;44.624;2023-12-22T02:28:50;8.5;;;4.6;;
49582;SDS011;36329;48.816;44.624;2023-12-22T02:31:53;7.8;;;4.5;;
49582;SDS011;36329;48.816;44.624;2023-12-22T02:34:57;9.5;;;5.3;;
49582;SDS011;36329;48.816;44.624;2023-12-22T02:38:00;9.1;;;4.6;;
49582;SDS011;36329;48.816;44.624;2023-12-22T02:41:05;7.8;;;4.8;;
49582;SDS011;36329;48.816;44.624;2023-12-22T02:44:08;6.9;;;4.3;;
49582;SDS011;36329;48.816;44.624;2023-12-22T02:47:10;7.8;;;4.3;;
49582;SDS011;36329;48.816;44.624;2023-12-22T02:50:13;9.7;;;4.3;;
49582;SDS011;36329;48.816;44.624;2023-12-22T02:53:16;7.2;;;4.2;;
49582;SDS011;36329;48.816;44.624;2023-12-22T02:56:18;12.9;;;3.8;;
49582;SDS011;36329;48.816;44.624;2023-12-22T02:59:20;8.3;;;3.7;;
49582;SDS011;36329;48.816;44.624;2023-12-22T03:02:23;7.3;;;4;;
49582;SDS011;36329;48.816;44.624;2023-12-22T03:05:25;6.1;;;3.7;;
49582;SDS011;36329;48.816;44.624;2023-12-22T03:08:28;9.5;;;3.8;;
49582;SDS011;36329;48.816;44.624;2023-12-22T03:11:30;8.2;;;3.9;;
49582;SDS011;36329;48.816;44.624;2023-12-22T03:14:32;6.1;;;3.6;;
49582;SDS011;36329;48.816;44.624;2023-12-22T03:17:34;8.9;;;3.7;;
49582;SDS011;36329;48.816;44.624;2023-12-22T03:20:38;5.4;;;3.6;;
49582;SDS011;36329;48.816;44.624;2023-12-22T03:23:40;5.9;;;3.7;;
49582;SDS011;36329;48.816;44.624;2023-12-22T03:26:42;7.6;;;3.8;;
49582;SDS011;36329;48.816;44.624;2023-12-22T03:29:44;7.6;;;3.7;;
49582;SDS011;36329;48.816;44.624;2023-12-22T03:32:47;6.6;;;3.5;;
49582;SDS011;36329;48.816;44.624;2023-12-22T03:35:49;7.2;;;3.4;;
49582;SDS011;36329;48.816;44.624;2023-12-22T03:38:51;7;;;3.7;;
49582;SDS011;36329;48.816;44.624;2023-12-22T03:41:54;7.1;;;3.4;;
49582;SDS011;36329;48.816;44.624;2023-12-22T03:44:56;5.5;;;3.6;;
49582;SDS011;36329;48.816;44.624;2023-12-22T03:47:58;5.6;;;3.4;;
49582;SDS011;36329;48.816;44.624;2023-12-22T03:51:00;5.7;;;3.2;;
49582;SDS011;36329;48.816;44.624;2023-12-22T03:54:03;6.8;;;2.9;;
49582;SDS011;36329;48.816;44.624;2023-12-22T03:57:05;5.7;;;3;;
49582;SDS011;36329;48.816;44.624;2023-12-22T04:00:08;7.3;;;3.2;;
49582;SDS011;36329;48.816;44.624;2023-12-22T04:03:11;4.1;;;2.8;;
49582;SDS011;36329;48.816;44.624;2023-12-22T04:06:13;5.9;;;2.8;;
49582;SDS011;36329;48.816;44.624;2023-12-22T04:09:15;6;;;3.1;;
49582;SDS011;36329;48.816;44.624;2023-12-22T04:12:17;7.7;;;3.3;;
49582;SDS011;36329;48.816;44.624;2023-12-22T04:15:20;5.9;;;2.9;;
49582;SDS011;36329;48.816;44.624;2023-12-22T04:18:22;8.4;;;2.9;;
49582;SDS011;36329;48.816;44.624;2023-12-22T04:21:26;8.5;;;3.2;;
49582;SDS011;36329;48.816;44.624;2023-12-22T04:24:30;5;;;3.1;;
49582;SDS011;36329;48.816;44.624;2023-12-22T04:27:35;6.6;;;3.1;;
49582;SDS011;36329;48.816;44.624;2023-12-22T04:30:38;7.6;;;3.1;;
49582;SDS011;36329;48.816;44.624;2023-12-22T04:33:40;5.2;;;3;;
49582;SDS011;36329;48.816;44.624;2023-12-22T04:36:43;6.1;;;3;;
49582;SDS011;36329;48.816;44.624;2023-12-22T04:39:45;4.4;;;2.9;;
49582;SDS011;36329;48.816;44.624;2023-12-22T04:42:47;4.4;;;3.1;;
49582;SDS011;36329;48.816;44.624;2023-12-22T04:45:50;4.3;;;3.3;;
49582;SDS011;36329;48.816;44.624;2023-12-22T04:48:54;4.4;;;3;;
49582;SDS011;36329;48.816;44.624;2023-12-22T04:51:56;6.8;;;3.3;;
49582;SDS011;36329;48.816;44.624;2023-12-22T04:54:58;4.7;;;3.2;;
49582;SDS011;36329;48.816;44.624;2023-12-22T04:58:00;6.8;;;3.3;;
49582;SDS011;36329;48.816;44.624;2023-12-22T05:01:03;7.6;;;3.1;;
49582;SDS011;36329;48.816;44.624;2023-12-22T05:04:08;4.6;;;3.4;;
49582;SDS011;36329;48.816;44.624;2023-12-22T05:07:10;7.1;;;3.4;;
49582;SDS011;36329;48.816;44.624;2023-12-22T05:10:12;6.5;;;3.2;;
49582;SDS011;36329;48.816;44.624;2023-12-22T05:13:15;6.7;;;3.3;;
49582;SDS011;36329;48.816;44.624;2023-12-22T05:16:17;11.4;;;3.2;;
49582;SDS011;36329;48.816;44.624;2023-12-22T05:19:19;4.7;;;3.3;;
49582;SDS011;36329;48.816;44.624;2023-12-22T05:22:21;7.1;;;3.4;;
49582;SDS011;36329;48.816;44.624;2023-12-22T05:25:24;5.8;;;3.4;;
49582;SDS011;36329;48.816;44.624;2023-12-22T05:28:27;6.2;;;3.6;;
49582;SDS011;36329;48.816;44.624;2023-12-22T05:31:29;5.8;;;3.6;;
49582;SDS011;36329;48.816;44.624;2023-12-22T05:34:32;11.5;;;3.6;;
49582;SDS011;36329;48.816;44.624;2023-12-22T05:37:34;5.2;;;3.8;;
49582;SDS011;36329;48.816;44.624;2023-12-22T05:40:36;4.6;;;3.1;;
49582;SDS011;36329;48.816;44.624;2023-12-22T05:43:39;5.1;;;3.6;;
49582;SDS011;36329;48.816;44.624;2023-12-22T05:46:41;5.1;;;3.5;;
49582;SDS011;36329;48.816;44.624;2023-12-22T05:49:44;5.4;;;3.5;;
49582;SDS011;36329;48.816;44.624;2023-12-22T05:52:46;5.5;;;3.7;;
49582;SDS011;36329;48.816;44.624;2023-12-22T05:55:48;5.2;;;3.6;;
49582;SDS011;36329;48.816;44.624;2023-12-22T05:58:52;6.9;;;3.7;;
49582;SDS011;36329;48.816;44.624;2023-12-22T06:01:54;7.4;;;3.5;;
49582;SDS011;36329;48.816;44.624;2023-12-22T06:04:56;6.6;;;3.6;;
49582;SDS011;36329;48.816;44.624;2023-12-22T06:07:58;4.5;;;3.2;;
49582;SDS011;36329;48.816;44.624;2023-12-22T06:11:00;6.5;;;3.3;;
49582;SDS011;36329;48.816;44.624;2023-12-22T06:14:03;6;;;3.3;;
49582;SDS011;36329;48.816;44.624;2023-12-22T06:17:05;6.3;;;3.5;;
49582;SDS011;36329;48.816;44.624;2023-12-22T06:20:07;4.9;;;3.2;;
49582;SDS011;36329;48.816;44.624;2023-12-22T06:23:10;5.9;;;3.3;;
49582;SDS011;36329;48.816;44.624;2023-12-22T06:26:13;4.7;;;3.5;;
49582;SDS011;36329;48.816;44.624;2023-12-22T06:29:20;7.1;;;3.6;;
49582;SDS011;36329;48.816;44.624;2023-12-22T06:32:23;5.6;;;3.8;;
49582;SDS011;36329;48.816;44.624;2023-12-22T06:35:26;5.8;;;3.8;;
49582;SDS011;36329;48.816;44.624;2023-12-22T06:38:28;6.4;;;3.8;;
49582;SDS011;36329;48.816;44.624;2023-12-22T06:41:30;7.2;;;4.2;;
49582;SDS011;36329;48.816;44.624;2023-12-22T06:44:33;6.7;;;4;;
49582;SDS011;36329;48.816;44.624;2023-12-22T06:47:35;7.1;;;4.4;;
49582;SDS011;36329;48.816;44.624;2023-12-22T06:50:37;6.9;;;4.2;;
49582;SDS011;36329;48.816;44.624;2023-12-22T06:53:39;6.4;;;4.2;;
49582;SDS011;36329;48.816;44.624;2023-12-22T06:56:41;6.3;;;4.3;;
49582;SDS011;36329;48.816;44.624;2023-12-22T06:59:43;7.4;;;4.3;;
49582;SDS011;36329;48.816;44.624;2023-12-22T07:02:46;9;;;4.4;;
49582;SDS011;36329;48.816;44.624;2023-12-22T07:05:48;6.7;;;4.3;;
49582;SDS011;36329;48.816;44.624;2023-12-22T07:08:58;8.1;;;4.7;;
49582;SDS011;36329;48.816;44.624;2023-12-22T07:12:22;8;;;4.8;;
49582;SDS011;36329;48.816;44.624;2023-12-22T07:15:24;10;;;5;;
49582;SDS011;36329;48.816;44.624;2023-12-22T07:18:26;7;;;4.4;;
49582;SDS011;36329;48.816;44.624;2023-12-22T07:21:28;8;;;4.7;;
49582;SDS011;36329;48.816;44.624;2023-12-22T07:24:31;8.5;;;4.7;;
49582;SDS011;36329;48.816;44.624;2023-12-22T07:27:33;8.4;;;4.7;;
49582;SDS011;36329;48.816;44.624;2023-12-22T07:30:35;11.6;;;4.3;;
49582;SDS011;36329;48.816;44.624;2023-12-22T07:33:37;7.6;;;4.6;;
49582;SDS011;36329;48.816;44.624;2023-12-22T07:36:39;7.7;;;4.3;;
49582;SDS011;36329;48.816;44.624;2023-12-22T07:39:41;6.8;;;4.3;;
49582;SDS011;36329;48.816;44.624;2023-12-22T07:42:44;7.1;;;4.1;;
49582;SDS011;36329;48.816;44.624;2023-12-22T07:45:46;6.8;;;4.4;;
49582;SDS011;36329;48.816;44.624;2023-12-22T07:48:48;7.9;;;4.7;;
49582;SDS011;36329;48.816;44.624;2023-12-22T07:51:50;7.3;;;4.3;;
49582;SDS011;36329;48.816;44.624;2023-12-22T07:54:54;6.9;;;4.4;;
49582;SDS011;36329;48.816;44.624;2023-12-22T07:57:56;6;;;4.2;;
49582;SDS011;36329;48.816;44.624;2023-12-22T08:00:58;7.6;;;4.2;;
49582;SDS011;36329;48.816;44.624;2023-12-22T08:04:01;6.1;;;4;;
49582;SDS011;36329;48.816;44.624;2023-12-22T08:07:03;8.1;;;4.3;;
49582;SDS011;36329;48.816;44.624;2023-12-22T08:10:05;7.5;;;3.9;;
49582;SDS011;36329;48.816;44.624;2023-12-22T08:13:09;6;;;3.9;;
49582;SDS011;36329;48.816;44.624;2023-12-22T08:16:11;8.9;;;4.3;;
49582;SDS011;36329;48.816;44.624;2023-12-22T08:19:14;6.6;;;4.1;;
49582;SDS011;36329;48.816;44.624;2023-12-22T08:22:16;8.2;;;3.8;;
49582;SDS011;36329;48.816;44.624;2023-12-22T08:25:18;7.2;;;4.3;;
49582;SDS011;36329;48.816;44.624;2023-12-22T08:28:20;6.8;;;4.1;;
49582;SDS011;36329;48.816;44.624;2023-12-22T08:31:22;6.4;;;4.2;;
49582;SDS011;36329;48.816;44.624;2023-12-22T08:34:25;6.5;;;4.2;;
49582;SDS011;36329;48.816;44.624;2023-12-22T08:37:27;6.7;;;4.4;;
49582;SDS011;36329;48.816;44.624;2023-12-22T08:40:29;6.8;;;4.1;;
49582;SDS011;36329;48.816;44.624;2023-12-22T08:43:31;7.3;;;4.1;;
49582;SDS011;36329;48.816;44.624;2023-12-22T08:46:34;7.7;;;4.1;;
49582;SDS011;36329;48.816;44.624;2023-12-22T08:49:37;5.8;;;4.1;;
49582;SDS011;36329;48.816;44.624;2023-12-22T08:52:39;5.6;;;3.7;;
49582;SDS011;36329;48.816;44.624;2023-12-22T08:55:41;6.1;;;3.8;;
49582;SDS011;36329;48.816;44.624;2023-12-22T08:58:43;6.7;;;3.8;;
49582;SDS011;36329;48.816;44.624;2023-12-22T09:01:46;8.5;;;4;;
49582;SDS011;36329;48.816;44.624;2023-12-22T09:04:48;6.1;;;3.9;;
49582;SDS011;36329;48.816;44.624;2023-12-22T09:07:50;7;;;4.1;;
49582;SDS011;36329;48.816;44.624;2023-12-22T09:10:53;6.5;;;3.9;;
49582;SDS011;36329;48.816;44.624;2023-12-22T09:13:56;7.2;;;4.2;;
49582;SDS011;36329;48.816;44.624;2023-12-22T09:16:58;6.8;;;4.1;;
49582;SDS011;36329;48.816;44.624;2023-12-22T09:20:00;7;;;4.5;;
49582;SDS011;36329;48.816;44.624;2023-12-22T09:23:03;8.2;;;4.3;;
49582;SDS011;36329;48.816;44.624;2023-12-22T09:26:05;7.1;;;4.1;;
49582;SDS011;36329;48.816;44.624;2023-12-22T09:29:07;7.1;;;4.4;;
49582;SDS011;36329;48.816;44.624;2023-12-22T09:32:10;8.4;;;4.3;;
49582;SDS011;36329;48.816;44.624;2023-12-22T09:35:12;10.1;;;4.7;;
49582;SDS011;36329;48.816;44.624;2023-12-22T09:38:14;7.4;;;4.9;;
49582;SDS011;36329;48.816;44.624;2023-12-22T09:41:16;7.6;;;4.6;;
49582;SDS011;36329;48.816;44.624;2023-12-22T09:44:19;7.1;;;4.4;;
49582;SDS011;36329;48.816;44.624;2023-12-22T09:47:23;8.8;;;4.9;;
49582;SDS011;36329;48.816;44.624;2023-12-22T09:50:27;9.2;;;4.9;;
49582;SDS011;36329;48.816;44.624;2023-12-22T09:53:29;6.6;;;4.4;;
49582;SDS011;36329;48.816;44.624;2023-12-22T09:56:33;7.4;;;4.2;;
49582;SDS011;36329;48.816;44.624;2023-12-22T09:59:36;8.6;;;4.6;;
49582;SDS011;36329;48.816;44.624;2023-12-22T10:02:39;8.1;;;5.2;;
49582;SDS011;36329;48.816;44.624;2023-12-22T10:05:42;7.5;;;4.5;;
49582;SDS011;36329;48.816;44.624;2023-12-22T10:08:44;7.9;;;4.8;;
49582;SDS011;36329;48.816;44.624;2023-12-22T10:11:49;7.6;;;4.5;;
49582;SDS011;36329;48.816;44.624;2023-12-22T10:14:54;8.8;;;4.5;;
49582;SDS011;36329;48.816;44.624;2023-12-22T10:17:58;8.3;;;4.7;;
49582;SDS011;36329;48.816;44.624;2023-12-22T10:21:00;8.2;;;4.7;;
49582;SDS011;36329;48.816;44.624;2023-12-22T10:24:03;8.7;;;4.7;;
49582;SDS011;36329;48.816;44.624;2023-12-22T10:27:05;7;;;4.4;;
49582;SDS011;36329;48.816;44.624;2023-12-22T10:30:08;8.6;;;4.9;;
49582;SDS011;36329;48.816;44.624;2023-12-22T10:33:11;9.7;;;4.9;;
49582;SDS011;36329;48.816;44.624;2023-12-22T10:36:14;9.5;;;4.9;;
49582;SDS011;36329;48.816;44.624;2023-12-22T10:39:17;11.8;;;5.1;;
49582;SDS011;36329;48.816;44.624;2023-12-22T10:42:19;8.8;;;4.8;;
49582;SDS011;36329;48.816;44.624;2023-12-22T10:45:22;8.4;;;4.9;;
49582;SDS011;36329;48.816;44.624;2023-12-22T10:48:24;9.8;;;5.3;;
49582;SDS011;36329;48.816;44.624;2023-12-22T10:51:28;9.9;;;5.3;;
49582;SDS011;36329;48.816;44.624;2023-12-22T10:54:31;10.4;;;5.1;;
49582;SDS011;36329;48.816;44.624;2023-12-22T10:57:33;9;;;5.5;;
49582;SDS011;36329;48.816;44.624;2023-12-22T11:00:36;9.4;;;5.3;;
49582;SDS011;36329;48.816;44.624;2023-12-22T11:03:44;9;;;5.2;;
49582;SDS011;36329;48.816;44.624;2023-12-22T11:06:47;9.9;;;5.3;;
49582;SDS011;36329;48.816;44.624;2023-12-22T11:09:55;10.2;;;5.9;;
49582;SDS011;36329;48.816;44.624;2023-12-22T11:12:59;9.3;;;6;;
49582;SDS011;36329;48.816;44.624;2023-12-22T11:16:02;9.3;;;5.4;;
49582;SDS011;36329;48.816;44.624;2023-12-22T11:19:06;11.5;;;6.1;;
49582;SDS011;36329;48.816;44.624;2023-12-22T11:22:09;13.9;;;6.9;;
49582;SDS011;36329;48.816;44.624;2023-12-22T11:25:14;13.4;;;7.4;;
49582;SDS011;36329;48.816;44.624;2023-12-22T11:28:19;11.8;;;5.9;;
49582;SDS011;36329;48.816;44.624;2023-12-22T11:31:24;12.3;;;6.8;;
49582;SDS011;36329;48.816;44.624;2023-12-22T11:34:30;11.8;;;6.7;;
49582;SDS011;36329;48.816;44.624;2023-12-22T11:37:35;12.6;;;6.3;;
49582;SDS011;36329;48.816;44.624;2023-12-22T11:40:38;12.7;;;6.1;;
49582;SDS011;36329;48.816;44.624;2023-12-22T11:43:41;10.5;;;5.6;;
49582;SDS011;36329;48.816;44.624;2023-12-22T11:46:46;12;;;5.5;;
49582;SDS011;36329;48.816;44.624;2023-12-22T11:49:49;11.7;;;5.6;;
49582;SDS011;36329;48.816;44.624;2023-12-22T11:52:51;13.7;;;5.6;;
49582;SDS011;36329;48.816;44.624;2023-12-22T11:55:56;14.2;;;6.4;;
49582;SDS011;36329;48.816;44.624;2023-12-22T11:59:00;11.6;;;5.9;;
49582;SDS011;36329;48.816;44.624;2023-12-22T12:02:03;11.3;;;5.9;;
49582;SDS011;36329;48.816;44.624;2023-12-22T12:05:12;13.2;;;6.2;;
49582;SDS011;36329;48.816;44.624;2023-12-22T12:08:15;11.2;;;6.3;;
49582;SDS011;36329;48.816;44.624;2023-12-22T12:11:17;14.2;;;6.5;;
49582;SDS011;36329;48.816;44.624;2023-12-22T12:14:26;14.9;;;6.8;;
49582;SDS011;36329;48.816;44.624;2023-12-22T12:17:38;15.3;;;6.9;;
49582;SDS011;36329;48.816;44.624;2023-12-22T12:20:41;11.8;;;6;;
49582;SDS011;36329;48.816;44.624;2023-12-22T12:23:44;14.4;;;6;;
49582;SDS011;36329;48.816;44.624;2023-12-22T12:26:46;16.4;;;6.9;;
49582;SDS011;36329;48.816;44.624;2023-12-22T12:29:48;14.8;;;6;;
49582;SDS011;36329;48.816;44.624;2023-12-22T12:32:54;16.6;;;6.5;;
49582;SDS011;36329;48.816;44.624;2023-12-22T12:36:02;17.7;;;7.2;;
49582;SDS011;36329;48.816;44.624;2023-12-22T12:39:06;15.8;;;6.7;;
49582;SDS011;36329;48.816;44.624;2023-12-22T12:42:09;13.6;;;6.1;;
49582;SDS011;36329;48.816;44.624;2023-12-22T12:45:22;15.5;;;6;;
49582;SDS011;36329;48.816;44.624;2023-12-22T12:48:25;15.1;;;5.8;;
49582;SDS011;36329;48.816;44.624;2023-12-22T12:51:29;15.4;;;6.7;;
49582;SDS011;36329;48.816;44.624;2023-12-22T12:54:34;14.9;;;6;;
49582;SDS011;36329;48.816;44.624;2023-12-22T12:57:37;13.1;;;6.3;;
49582;SDS011;36329;48.816;44.624;2023-12-22T13:00:39;13.7;;;6.1;;
49582;SDS011;36329;48.816;44.624;2023-12-22T13:07:00;19.1;;;6;;
49582;SDS011;36329;48.816;44.624;2023-12-22T13:10:03;14.4;;;6;;
49582;SDS011;36329;48.816;44.624;2023-12-22T13:13:06;13.4;;;5.6;;
49582;SDS011;36329;48.816;44.624;2023-12-22T13:16:09;13.3;;;6.3;;
49582;SDS011;36329;48.816;44.624;2023-12-22T13:19:11;22.2;;;6.6;;
49582;SDS011;36329;48.816;44.624;2023-12-22T13:22:14;13.8;;;5.6;;
49582;SDS011;36329;48.816;44.624;2023-12-22T13:25:16;17.5;;;5.9;;
49582;SDS011;36329;48.816;44.624;2023-12-22T13:28:25;16.4;;;6;;
49582;SDS011;36329;48.816;44.624;2023-12-22T13:31:29;16.4;;;5.7;;
49582;SDS011;36329;48.816;44.624;2023-12-22T13:34:33;17.5;;;6.3;;
49582;SDS011;36329;48.816;44.624;2023-12-22T13:37:40;13.6;;;6;;
49582;SDS011;36329;48.816;44.624;2023-12-22T13:40:45;17.8;;;6.7;;
49582;SDS011;36329;48.816;44.624;2023-12-22T13:43:47;18.7;;;7.5;;
49582;SDS011;36329;48.816;44.624;2023-12-22T13:46:49;18.5;;;6.9;;
49582;SDS011;36329;48.816;44.624;2023-12-22T13:49:52;16.7;;;6.7;;
49582;SDS011;36329;48.816;44.624;2023-12-22T13:52:57;19;;;7.1;;
49582;SDS011;36329;48.816;44.624;2023-12-22T13:56:10;20;;;7.5;;
49582;SDS011;36329;48.816;44.624;2023-12-22T13:59:13;19;;;7.7;;
49582;SDS011;36329;48.816;44.624;2023-12-22T14:02:15;21.9;;;8.6;;
49582;SDS011;36329;48.816;44.624;2023-12-22T14:05:18;17.7;;;7.4;;
49582;SDS011;36329;48.816;44.624;2023-12-22T14:08:20;23.2;;;7;;
49582;SDS011;36329;48.816;44.624;2023-12-22T14:11:23;14.1;;;6.4;;
49582;SDS011;36329;48.816;44.624;2023-12-22T14:14:25;15.3;;;6.6;;
49582;SDS011;36329;48.816;44.624;2023-12-22T14:17:27;16.9;;;6.8;;
49582;SDS011;36329;48.816;44.624;2023-12-22T14:20:29;17.7;;;6.9;;
49582;SDS011;36329;48.816;44.624;2023-12-22T14:23:32;18;;;7.1;;
49582;SDS011;36329;48.816;44.624;2023-12-22T14:29:55;19;;;6.4;;
49582;SDS011;36329;48.816;44.624;2023-12-22T14:32:57;20.7;;;6.7;;
49582;SDS011;36329;48.816;44.624;2023-12-22T14:35:59;17.7;;;6.2;;
49582;SDS011;36329;48.816;44.624;2023-12-22T14:39:02;22;;;5.9;;
49582;SDS011;36329;48.816;44.624;2023-12-22T14:42:04;18.3;;;5.8;;
49582;SDS011;36329;48.816;44.624;2023-12-22T14:45:06;20.3;;;5;;
49582;SDS011;36329;48.816;44.624;2023-12-22T14:48:09;18;;;5.1;;
49582;SDS011;36329;48.816;44.624;2023-12-22T14:51:11;20.6;;;6.1;;
49582;SDS011;36329;48.816;44.624;2023-12-22T14:54:13;22.1;;;5.8;;
49582;SDS011;36329;48.816;44.624;2023-12-22T14:57:16;18.5;;;5.6;;
49582;SDS011;36329;48.816;44.624;2023-12-22T15:00:18;24.3;;;5.3;;
49582;SDS011;36329;48.816;44.624;2023-12-22T15:03:20;22.8;;;5.1;;
49582;SDS011;36329;48.816;44.624;2023-12-22T15:06:23;19.6;;;4.9;;
49582;SDS011;36329;48.816;44.624;2023-12-22T15:09:25;20.7;;;5.1;;
49582;SDS011;36329;48.816;44.624;2023-12-22T15:12:28;18.2;;;4.9;;
49582;SDS011;36329;48.816;44.624;2023-12-22T15:15:30;24.1;;;4.8;;
49582;SDS011;36329;48.816;44.624;2023-12-22T15:18:33;23.4;;;5.5;;
49582;SDS011;36329;48.816;44.624;2023-12-22T15:21:35;16.1;;;4.6;;
49582;SDS011;36329;48.816;44.624;2023-12-22T15:24:38;20.2;;;4.2;;
49582;SDS011;36329;48.816;44.624;2023-12-22T15:27:42;19;;;4.6;;
49582;SDS011;36329;48.816;44.624;2023-12-22T15:30:45;22.8;;;4.5;;
49582;SDS011;36329;48.816;44.624;2023-12-22T15:33:47;15.6;;;4.2;;
49582;SDS011;36329;48.816;44.624;2023-12-22T15:36:49;20.7;;;4.8;;
49582;SDS011;36329;48.816;44.624;2023-12-22T15:39:51;20.5;;;5.3;;
49582;SDS011;36329;48.816;44.624;2023-12-22T15:42:54;26.4;;;5.3;;
49582;SDS011;36329;48.816;44.624;2023-12-22T15:45:56;29.8;;;5.5;;
49582;SDS011;36329;48.816;44.624;2023-12-22T15:48:59;23.9;;;5.2;;
49582;SDS011;36329;48.816;44.624;2023-12-22T15:52:02;22;;;6.2;;
49582;SDS011;36329;48.816;44.624;2023-12-22T15:55:04;21.7;;;6.2;;
49582;SDS011;36329;48.816;44.624;2023-12-22T15:58:07;20.7;;;6.1;;
49582;SDS011;36329;48.816;44.624;2023-12-22T16:01:09;21.8;;;5.9;;
49582;SDS011;36329;48.816;44.624;2023-12-22T16:04:12;25.8;;;6.9;;
49582;SDS011;36329;48.816;44.624;2023-12-22T16:07:15;27.3;;;6.2;;
49582;SDS011;36329;48.816;44.624;2023-12-22T16:10:17;22.4;;;6.7;;
49582;SDS011;36329;48.816;44.624;2023-12-22T16:13:21;22.8;;;6.4;;
49582;SDS011;36329;48.816;44.624;2023-12-22T16:16:23;28.6;;;7.3;;
49582;SDS011;36329;48.816;44.624;2023-12-22T16:19:26;22.2;;;6.8;;
49582;SDS011;36329;48.816;44.624;2023-12-22T16:22:28;27.9;;;6.6;;
49582;SDS011;36329;48.816;44.624;2023-12-22T16:25:30;25.4;;;6.2;;
49582;SDS011;36329;48.816;44.624;2023-12-22T16:28:32;21.8;;;6.6;;
49582;SDS011;36329;48.816;44.624;2023-12-22T16:31:38;22.7;;;6.3;;
49582;SDS011;36329;48.816;44.624;2023-12-22T16:34:41;25.3;;;6.9;;
49582;SDS011;36329;48.816;44.624;2023-12-22T16:37:44;19.3;;;5.5;;
49582;SDS011;36329;48.816;44.624;2023-12-22T16:40:46;23.4;;;6.4;;
49582;SDS011;36329;48.816;44.624;2023-12-22T16:43:48;25.7;;;6.6;;
49582;SDS011;36329;48.816;44.624;2023-12-22T16:46:50;19.8;;;5.6;;
49582;SDS011;36329;48.816;44.624;2023-12-22T16:49:53;19.2;;;5.7;;
49582;SDS011;36329;48.816;44.624;2023-12-22T16:52:55;18.4;;;5.4;;
49582;SDS011;36329;48.816;44.624;2023-12-22T16:55:57;22.3;;;5.5;;
49582;SDS011;36329;48.816;44.624;2023-12-22T16:58:59;23.9;;;5;;
49582;SDS011;36329;48.816;44.624;2023-12-22T17:02:02;18.9;;;4.4;;
49582;SDS011;36329;48.816;44.624;2023-12-22T17:05:05;15.8;;;4.4;;
49582;SDS011;36329;48.816;44.624;2023-12-22T17:08:07;13.2;;;4.5;;
49582;SDS011;36329;48.816;44.624;2023-12-22T17:11:09;15.7;;;4.4;;
49582;SDS011;36329;48.816;44.624;2023-12-22T17:14:12;23;;;5.3;;
49582;SDS011;36329;48.816;44.624;2023-12-22T17:17:14;15.5;;;4.4;;
49582;SDS011;36329;48.816;44.624;2023-12-22T17:20:17;19.5;;;4.6;;
49582;SDS011;36329;48.816;44.624;2023-12-22T17:23:19;18.8;;;4.4;;
49582;SDS011;36329;48.816;44.624;2023-12-22T17:26:21;19.4;;;4.6;;
49582;SDS011;36329;48.816;44.624;2023-12-22T17:29:23;23;;;4.9;;
49582;SDS011;36329;48.816;44.624;2023-12-22T17:32:26;22.5;;;5.3;;
49582;SDS011;36329;48.816;44.624;2023-12-22T17:35:29;17.6;;;5.1;;
49582;SDS011;36329;48.816;44.624;2023-12-22T17:38:32;22.3;;;5.5;;
49582;SDS011;36329;48.816;44.624;2023-12-22T17:41:34;21.6;;;5.4;;
49582;SDS011;36329;48.816;44.624;2023-12-22T17:44:37;20.9;;;4.9;;
49582;SDS011;36329;48.816;44.624;2023-12-22T17:47:39;24.7;;;5.1;;
49582;SDS011;36329;48.816;44.624;2023-12-22T17:50:42;22.2;;;4.7;;
49582;SDS011;36329;48.816;44.624;2023-12-22T17:53:44;32.7;;;5.3;;
49582;SDS011;36329;48.816;44.624;2023-12-22T17:56:47;23.9;;;4.9;;
49582;SDS011;36329;48.816;44.624;2023-12-22T17:59:49;23.6;;;5;;
49582;SDS011;36329;48.816;44.624;2023-12-22T18:02:53;32.3;;;5.4;;
49582;SDS011;36329;48.816;44.624;2023-12-22T18:05:55;24.9;;;4.7;;
49582;SDS011;36329;48.816;44.624;2023-12-22T18:08:57;24;;;5.1;;
49582;SDS011;36329;48.816;44.624;2023-12-22T18:11:59;22.9;;;5.5;;
49582;SDS011;36329;48.816;44.624;2023-12-22T18:15:02;24;;;5;;
49582;SDS011;36329;48.816;44.624;2023-12-22T18:18:06;25.9;;;6;;
49582;SDS011;36329;48.816;44.624;2023-12-22T18:21:08;33;;;6.1;;
49582;SDS011;36329;48.816;44.624;2023-12-22T18:24:11;38.8;;;6;;
49582;SDS011;36329;48.816;44.624;2023-12-22T18:27:13;33;;;6.7;;
49582;SDS011;36329;48.816;44.624;2023-12-22T18:30:15;41;;;6.5;;
49582;SDS011;36329;48.816;44.624;2023-12-22T18:33:18;40.8;;;6.7;;
49582;SDS011;36329;48.816;44.624;2023-12-22T18:36:21;43.5;;;6.9;;
49582;SDS011;36329;48.816;44.624;2023-12-22T18:39:23;39.7;;;6.7;;
49582;SDS011;36329;48.816;44.624;2023-12-22T18:42:26;39;;;7;;
49582;SDS011;36329;48.816;44.624;2023-12-22T18:45:29;43.4;;;6;;